createdAt,value
2023-04-13T00:01:33.217Z,3.00
2023-04-13T00:03:53.565Z,2.63
2023-04-13T00:06:13.641Z,3.25
2023-04-13T00:08:35.275Z,2.90
2023-04-13T00:10:56.688Z,2.67
2023-04-13T00:13:18.150Z,2.38
2023-04-13T00:15:41.207Z,3.13
2023-04-13T00:18:01.722Z,2.42
2023-04-13T00:20:21.990Z,2.38
2023-04-13T00:22:43.480Z,2.30
2023-04-13T00:25:03.775Z,2.35
2023-04-13T00:27:29.618Z,2.65
2023-04-13T00:29:50.011Z,3.35
2023-04-13T00:32:10.227Z,2.50
2023-04-13T00:34:30.314Z,2.58
2023-04-13T00:36:50.436Z,2.78
2023-04-13T00:39:10.473Z,3.20
2023-04-13T00:41:30.763Z,2.40
2023-04-13T00:43:51.869Z,2.95
2023-04-13T00:46:12.200Z,3.28
2023-04-13T00:48:34.418Z,2.22
2023-04-13T00:50:54.468Z,3.03
2023-04-13T00:53:15.809Z,2.85
2023-04-13T00:55:41.307Z,3.53
2023-04-13T00:58:01.418Z,2.83
2023-04-13T01:00:23.869Z,3.60
2023-04-13T01:02:44.014Z,3.60
2023-04-13T01:05:06.177Z,2.85
2023-04-13T01:07:40.825Z,2.65
2023-04-13T01:10:06.448Z,2.95
2023-04-13T01:12:30.144Z,2.20
2023-04-13T01:14:57.096Z,3.63
2023-04-13T01:17:21.033Z,3.20
2023-04-13T01:19:52.152Z,3.38
2023-04-13T01:22:13.856Z,3.72
2023-04-13T01:24:37.346Z,3.08
2023-04-13T01:27:00.366Z,3.53
2023-04-13T01:29:20.395Z,2.55
2023-04-13T01:31:41.447Z,3.15
2023-04-13T01:34:01.934Z,2.80
2023-04-13T01:36:22.247Z,3.15
2023-04-13T01:38:42.914Z,3.92
2023-04-13T01:41:03.271Z,3.63
2023-04-13T01:43:24.614Z,3.25
2023-04-13T01:45:52.174Z,2.90
2023-04-13T01:48:14.806Z,3.38
2023-04-13T01:50:37.945Z,2.35
2023-04-13T01:53:01.014Z,3.13
2023-04-13T01:57:46.655Z,3.35
2023-04-13T02:00:11.112Z,2.85
2023-04-13T02:02:32.074Z,3.45
2023-04-13T02:04:51.927Z,3.78
2023-04-13T02:07:12.075Z,3.22
2023-04-13T02:09:32.567Z,3.70
2023-04-13T02:11:53.468Z,3.10
2023-04-13T02:14:14.003Z,3.50
2023-04-13T02:16:34.245Z,3.35
2023-04-13T02:18:56.277Z,3.63
2023-04-13T02:21:17.282Z,5.45
2023-04-13T02:23:37.901Z,4.32
2023-04-13T02:25:58.027Z,3.10
2023-04-13T02:28:18.350Z,3.47
2023-04-13T02:30:38.450Z,3.65
2023-04-13T02:32:58.673Z,2.78
2023-04-13T02:35:20.067Z,2.92
2023-04-13T02:37:40.800Z,2.67
2023-04-13T02:40:01.245Z,3.28
2023-04-13T02:42:21.490Z,3.75
2023-04-13T02:44:41.589Z,2.80
2023-04-13T02:47:01.794Z,2.80
2023-04-13T02:49:21.931Z,2.95
2023-04-13T02:51:42.030Z,3.95
2023-04-13T02:54:02.959Z,2.90
2023-04-13T02:56:24.757Z,3.33
2023-04-13T02:58:45.300Z,4.10
2023-04-13T03:01:05.906Z,3.63
2023-04-13T03:03:26.005Z,2.58
2023-04-13T03:05:46.624Z,3.22
2023-04-13T03:08:09.506Z,3.42
2023-04-13T03:10:30.401Z,3.45
2023-04-13T03:12:50.824Z,3.80
2023-04-13T03:15:11.499Z,3.75
2023-04-13T03:17:31.757Z,3.65
2023-04-13T03:19:51.960Z,3.00
2023-04-13T03:22:12.567Z,3.38
2023-04-13T03:24:34.459Z,4.00
2023-04-13T03:26:57.345Z,3.35
2023-04-13T03:29:17.242Z,3.00
2023-04-13T03:31:37.525Z,4.63
2023-04-13T03:33:57.911Z,3.95
2023-04-13T03:36:18.216Z,3.78
2023-04-13T03:38:38.124Z,4.60
2023-04-13T03:40:58.450Z,3.80
2023-04-13T03:43:19.031Z,4.25
2023-04-13T03:45:39.004Z,4.00
2023-04-13T03:47:59.208Z,4.13
2023-04-13T03:50:19.337Z,3.70
2023-04-13T03:52:39.609Z,4.03
2023-04-13T03:54:59.777Z,4.28
2023-04-13T03:57:21.984Z,3.65
2023-04-13T03:59:42.398Z,4.10
2023-04-13T04:02:02.601Z,3.90
2023-04-13T04:04:22.908Z,3.80
2023-04-13T04:06:43.474Z,3.58
2023-04-13T04:09:04.118Z,5.28
2023-04-13T04:11:24.403Z,3.97
2023-04-13T04:13:44.594Z,4.53
2023-04-13T04:16:06.431Z,3.70
2023-04-13T04:18:26.916Z,4.00
2023-04-13T04:20:47.250Z,3.58
2023-04-13T04:23:09.180Z,3.42
2023-04-13T04:25:29.414Z,4.10
2023-04-13T04:27:50.144Z,3.33
2023-04-13T04:30:10.486Z,4.43
2023-04-13T04:32:33.126Z,4.05
2023-04-13T04:34:53.425Z,5.00
2023-04-13T04:37:20.293Z,3.90
2023-04-13T04:39:43.774Z,3.72
2023-04-13T04:42:04.354Z,4.88
2023-04-13T04:44:24.560Z,4.25
2023-04-13T04:46:44.859Z,4.00
2023-04-13T04:49:04.949Z,4.13
2023-04-13T04:51:27.321Z,4.20
2023-04-13T04:53:47.365Z,3.67
2023-04-13T04:56:07.750Z,3.97
2023-04-13T04:58:27.873Z,3.90
2023-04-13T05:00:49.042Z,4.05
2023-04-13T05:03:09.285Z,5.07
2023-04-13T05:05:30.024Z,4.75
2023-04-13T05:07:50.938Z,4.00
2023-04-13T05:10:11.463Z,4.88
2023-04-13T05:12:31.562Z,4.53
2023-04-13T05:14:51.961Z,4.18
2023-04-13T05:17:12.056Z,3.75
2023-04-13T05:19:33.735Z,3.58
2023-04-13T05:21:54.069Z,2.55
2023-04-13T05:24:14.041Z,3.05
2023-04-13T05:26:34.443Z,3.38
2023-04-13T05:28:54.702Z,2.95
2023-04-13T05:31:15.416Z,4.22
2023-04-13T05:33:35.691Z,3.85
2023-04-13T05:35:56.347Z,3.28
2023-04-13T05:38:16.846Z,3.58
2023-04-13T05:40:37.496Z,2.58
2023-04-13T05:42:57.817Z,5.03
2023-04-13T05:45:18.210Z,4.50
2023-04-13T05:47:39.500Z,3.90
2023-04-13T05:49:59.610Z,3.70
2023-04-13T05:52:21.376Z,3.17
2023-04-13T05:54:41.476Z,2.83
2023-04-13T05:57:01.846Z,2.70
2023-04-13T05:59:21.954Z,3.45
2023-04-13T06:01:42.368Z,3.35
2023-04-13T06:04:03.025Z,3.17
2023-04-13T06:06:24.270Z,3.00
2023-04-13T06:08:44.723Z,3.53
2023-04-13T06:11:05.806Z,2.72
2023-04-13T06:13:26.934Z,2.63
2023-04-13T06:15:47.837Z,3.83
2023-04-13T06:18:07.979Z,2.47
2023-04-13T06:20:28.158Z,3.08
2023-04-13T06:22:48.765Z,3.35
2023-04-13T06:25:11.445Z,3.55
2023-04-13T06:27:33.037Z,3.40
2023-04-13T06:29:53.079Z,2.30
2023-04-13T06:32:13.373Z,2.25
2023-04-13T06:34:34.855Z,7.80
2023-04-13T06:36:55.216Z,12.70
2023-04-13T06:39:15.382Z,12.00
2023-04-13T06:41:35.592Z,3.88
2023-04-13T06:43:55.640Z,7.68
2023-04-13T06:46:17.207Z,4.20
2023-04-13T06:48:39.529Z,3.70
2023-04-13T06:51:00.349Z,3.63
2023-04-13T06:53:20.758Z,3.40
2023-04-13T06:55:41.007Z,3.08
2023-04-13T06:58:00.949Z,3.95
2023-04-13T07:00:29.728Z,3.78
2023-04-13T07:02:50.711Z,3.35
2023-04-13T07:05:11.356Z,3.53
2023-04-13T07:07:32.626Z,3.25
2023-04-13T07:09:53.170Z,3.33
2023-04-13T07:12:13.436Z,3.45
2023-04-13T07:14:42.333Z,3.72
2023-04-13T07:17:02.550Z,3.75
2023-04-13T07:19:24.958Z,3.58
2023-04-13T07:21:45.641Z,3.30
2023-04-13T07:24:05.859Z,3.30
2023-04-13T07:26:26.574Z,3.60
2023-04-13T07:28:46.994Z,4.07
2023-04-13T07:31:07.214Z,3.58
2023-04-13T07:33:27.525Z,4.18
2023-04-13T07:35:49.549Z,3.83
2023-04-13T07:38:09.909Z,3.90
2023-04-13T07:40:30.545Z,3.88
2023-04-13T07:42:51.173Z,5.20
2023-04-13T07:45:11.582Z,4.75
2023-04-13T07:47:31.741Z,3.50
2023-04-13T07:49:51.890Z,4.82
2023-04-13T07:52:12.050Z,4.00
2023-04-13T07:54:32.209Z,4.78
2023-04-13T07:56:52.433Z,4.53
2023-04-13T07:59:13.524Z,5.80
2023-04-13T08:01:34.319Z,4.80
2023-04-13T08:03:54.731Z,5.70
2023-04-13T08:06:16.108Z,4.80
2023-04-13T08:08:36.372Z,5.25
2023-04-13T08:10:56.910Z,4.53
2023-04-13T08:13:17.365Z,4.85
2023-04-13T08:15:37.398Z,5.90
2023-04-13T08:17:59.109Z,4.85
2023-04-13T08:20:20.458Z,5.70
2023-04-13T08:22:40.973Z,5.70
2023-04-13T08:25:01.022Z,5.53
2023-04-13T08:27:21.114Z,6.30
2023-04-13T08:29:40.996Z,5.22
2023-04-13T08:32:01.396Z,5.63
2023-04-13T08:34:21.827Z,7.78
2023-04-13T08:36:42.205Z,6.30
2023-04-13T08:39:02.520Z,7.03
2023-04-13T08:41:23.045Z,6.10
2023-04-13T08:43:43.441Z,6.93
2023-04-13T08:46:07.136Z,6.07
2023-04-13T08:48:28.151Z,5.65
2023-04-13T08:50:53.436Z,6.50
2023-04-13T08:55:33.610Z,5.70
2023-04-13T08:57:56.941Z,6.13
2023-04-13T09:00:19.023Z,5.10
2023-04-13T09:02:46.664Z,6.70
2023-04-13T09:05:21.929Z,6.18
2023-04-13T09:07:44.187Z,6.87
2023-04-13T09:10:05.752Z,7.47
2023-04-13T09:12:26.600Z,7.38
2023-04-13T09:14:47.494Z,5.72
2023-04-13T09:17:07.666Z,5.90
2023-04-13T09:19:34.093Z,7.78
2023-04-13T09:21:54.789Z,6.80
2023-04-13T09:24:15.373Z,8.63
2023-04-13T09:26:48.045Z,6.88
2023-04-13T09:29:09.621Z,7.57
2023-04-13T09:31:34.077Z,9.35
2023-04-13T09:33:54.905Z,7.25
2023-04-13T09:36:16.515Z,6.40
2023-04-13T09:38:36.738Z,6.90
2023-04-13T09:40:58.253Z,7.07
2023-04-13T09:43:18.826Z,7.50
2023-04-13T09:45:40.770Z,8.48
2023-04-13T09:48:02.427Z,8.50
2023-04-13T09:50:26.331Z,10.27
2023-04-13T09:52:46.753Z,10.90
2023-04-13T09:55:16.003Z,9.07
2023-04-13T09:57:36.574Z,8.88
2023-04-13T09:59:59.900Z,8.82
2023-04-13T10:04:40.753Z,10.20
2023-04-13T10:07:01.480Z,8.88
2023-04-13T10:09:21.823Z,4.38
2023-04-13T10:11:45.007Z,4.60
2023-04-13T10:14:09.265Z,2.90
2023-04-13T10:16:36.240Z,2.78
2023-04-13T10:19:05.709Z,3.33
2023-04-13T10:21:38.597Z,4.50
2023-04-13T10:23:59.028Z,4.60
2023-04-13T10:26:29.922Z,5.40
2023-04-13T10:28:50.204Z,5.13
2023-04-13T10:31:10.624Z,4.68
2023-04-13T10:33:31.603Z,4.00
2023-04-13T10:35:58.831Z,4.97
2023-04-13T10:38:19.170Z,5.40
2023-04-13T10:40:46.049Z,5.85
2023-04-13T10:43:06.389Z,10.18
2023-04-13T10:45:27.439Z,8.05
2023-04-13T10:47:48.275Z,4.25
2023-04-13T10:50:16.777Z,4.32
2023-04-13T10:52:37.403Z,4.40
2023-04-13T10:54:57.986Z,5.75
2023-04-13T10:57:18.650Z,6.97
2023-04-13T10:59:55.662Z,4.93
2023-04-13T11:02:17.940Z,6.82
2023-04-13T11:04:39.503Z,5.68
2023-04-13T11:06:59.937Z,6.10
2023-04-13T11:09:22.242Z,6.05
2023-04-13T11:11:42.315Z,5.00
2023-04-13T11:14:02.984Z,6.43
2023-04-13T11:16:23.477Z,5.60
2023-04-13T11:18:43.455Z,5.60
2023-04-13T11:21:06.731Z,7.50
2023-04-13T11:23:33.837Z,5.57
2023-04-13T11:25:57.367Z,4.90
2023-04-13T11:28:17.624Z,6.43
2023-04-13T11:30:38.217Z,5.65
2023-04-13T11:32:59.392Z,6.60
2023-04-13T11:35:20.670Z,8.30
2023-04-13T11:37:50.258Z,4.95
2023-04-13T11:40:14.113Z,7.60
2023-04-13T11:42:37.895Z,7.60
2023-04-13T11:44:58.282Z,6.65
2023-04-13T11:47:18.662Z,6.05
2023-04-13T11:49:40.551Z,5.68
2023-04-13T11:52:01.787Z,4.57
2023-04-13T11:54:22.191Z,5.50
2023-04-13T11:56:42.061Z,5.22
2023-04-13T11:59:02.452Z,5.65
2023-04-13T12:01:27.472Z,5.03
2023-04-13T12:04:01.611Z,6.20
2023-04-13T12:06:30.018Z,5.40
2023-04-13T12:08:55.892Z,5.93
2023-04-13T12:11:40.604Z,10.45
2023-04-13T12:14:07.070Z,8.25
2023-04-13T12:17:01.817Z,6.25
2023-04-13T12:19:16.221Z,4.93
2023-04-13T12:21:37.056Z,5.80
2023-04-13T12:23:59.347Z,4.07
2023-04-13T12:27:08.599Z,3.83
2023-04-13T12:29:03.454Z,6.60
2023-04-13T12:31:23.615Z,4.25
2023-04-13T12:33:43.613Z,3.35
2023-04-13T12:36:06.018Z,3.78
2023-04-13T12:38:26.757Z,4.50
2023-04-13T12:40:46.792Z,4.60
2023-04-13T12:43:07.034Z,2.85
2023-04-13T12:45:27.767Z,3.97
2023-04-13T12:47:47.760Z,2.92
2023-04-13T12:50:08.727Z,2.83
2023-04-13T12:52:31.595Z,3.08
2023-04-13T12:54:51.956Z,3.28
2023-04-13T12:57:16.162Z,2.78
2023-04-13T12:59:36.548Z,2.67
2023-04-13T13:01:57.047Z,3.30
2023-04-13T13:04:17.557Z,4.13
2023-04-13T13:06:37.967Z,3.22
2023-04-13T13:08:58.146Z,4.32
2023-04-13T13:11:18.593Z,4.47
2023-04-13T13:13:38.864Z,5.13
2023-04-13T13:15:59.282Z,4.85
2023-04-13T13:18:19.510Z,3.47
2023-04-13T13:20:40.647Z,3.75
2023-04-13T13:23:01.021Z,2.72
2023-04-13T13:25:21.159Z,4.07
2023-04-13T13:28:12.608Z,2.90
2023-04-13T13:30:23.079Z,3.58
2023-04-13T13:32:43.763Z,4.13
2023-04-13T13:35:04.545Z,5.40
2023-04-13T13:37:24.856Z,5.07
2023-04-13T13:39:46.403Z,2.90
2023-04-13T13:42:06.808Z,3.05
2023-04-13T13:44:27.339Z,3.22
2023-04-13T13:46:47.855Z,2.80
2023-04-13T13:49:08.061Z,3.00
2023-04-13T13:51:28.142Z,4.72
2023-04-13T13:53:48.180Z,3.78
2023-04-13T13:56:08.509Z,3.38
2023-04-13T13:58:28.775Z,3.63
2023-04-13T14:00:49.842Z,4.25
2023-04-13T14:03:11.356Z,3.85
2023-04-13T14:05:31.771Z,4.88
2023-04-13T14:07:51.920Z,3.53
2023-04-13T14:10:12.073Z,4.93
2023-04-13T14:12:32.071Z,5.93
2023-04-13T14:14:52.205Z,11.57
2023-04-13T14:17:12.513Z,4.25
2023-04-13T14:19:33.948Z,2.75
2023-04-13T14:21:55.922Z,3.70
2023-04-13T14:24:16.423Z,4.68
2023-04-13T14:26:37.624Z,3.13
2023-04-13T14:28:57.814Z,3.17
2023-04-13T14:31:18.422Z,3.45
2023-04-13T14:33:38.694Z,2.85
2023-04-13T14:35:58.760Z,2.67
2023-04-13T14:38:22.111Z,2.30
2023-04-13T14:40:42.739Z,2.80
2023-04-13T14:43:03.141Z,4.22
2023-04-13T14:45:23.455Z,1.88
2023-04-13T14:47:43.802Z,2.25
2023-04-13T14:50:04.076Z,2.83
2023-04-13T14:52:24.750Z,3.22
2023-04-13T14:54:44.851Z,2.38
2023-04-13T14:57:05.075Z,4.55
2023-04-13T14:59:25.660Z,4.38
2023-04-13T15:01:46.086Z,9.88
2023-04-13T15:04:06.665Z,3.47
2023-04-13T15:06:27.187Z,4.90
2023-04-13T15:08:47.525Z,3.08
2023-04-13T15:11:08.454Z,3.35
2023-04-13T15:13:28.547Z,3.08
2023-04-13T15:15:51.226Z,4.40
2023-04-13T15:18:11.737Z,3.95
2023-04-13T15:20:32.315Z,4.18
2023-04-13T15:22:53.758Z,4.13
2023-04-13T15:25:13.759Z,2.85
2023-04-13T15:27:34.006Z,3.03
2023-04-13T15:29:57.927Z,4.63
2023-04-13T15:32:18.981Z,4.10
2023-04-13T15:34:39.861Z,4.32
2023-04-13T15:37:00.129Z,2.95
2023-04-13T15:39:20.256Z,2.80
2023-04-13T15:41:40.446Z,3.45
2023-04-13T15:44:01.206Z,4.50
2023-04-13T15:46:21.744Z,4.53
2023-04-13T15:48:41.836Z,2.67
2023-04-13T15:51:02.213Z,3.60
2023-04-13T15:53:22.293Z,3.38
2023-04-13T15:55:42.557Z,4.60
2023-04-13T15:58:03.112Z,4.40
2023-04-13T16:00:24.163Z,10.05
2023-04-13T16:02:44.446Z,3.88
2023-04-13T16:05:05.254Z,4.88
2023-04-13T16:07:25.496Z,8.20
2023-04-13T16:09:58.053Z,6.63
2023-04-13T16:12:19.483Z,2.70
2023-04-13T16:14:44.557Z,4.13
2023-04-13T16:17:08.825Z,3.15
2023-04-13T16:19:31.938Z,5.60
2023-04-13T16:24:13.103Z,5.53
2023-04-13T16:26:33.203Z,3.03
2023-04-13T16:28:53.156Z,2.63
2023-04-13T16:31:13.162Z,3.58
2023-04-13T16:33:33.202Z,3.47
2023-04-13T16:35:53.218Z,3.03
2023-04-13T16:38:13.515Z,2.88
2023-04-13T16:40:33.737Z,2.72
2023-04-13T16:42:53.905Z,4.13
2023-04-13T16:45:15.286Z,4.32
2023-04-13T16:47:39.010Z,3.83
2023-04-13T16:49:59.635Z,5.05
2023-04-13T16:52:19.993Z,5.15
2023-04-13T16:54:43.434Z,4.78
2023-04-13T16:57:03.755Z,3.40
2023-04-13T16:59:23.948Z,2.90
2023-04-13T17:01:44.200Z,2.95
2023-04-13T17:04:04.777Z,2.50
2023-04-13T17:06:26.407Z,3.20
2023-04-13T17:08:46.891Z,4.13
2023-04-13T17:11:07.753Z,5.75
2023-04-13T17:13:28.166Z,3.50
2023-04-13T17:15:48.415Z,2.80
2023-04-13T17:18:08.888Z,3.58
2023-04-13T17:20:28.879Z,3.33
2023-04-13T17:22:49.035Z,4.93
2023-04-13T17:25:09.321Z,3.92
2023-04-13T17:27:29.547Z,3.75
2023-04-13T17:29:49.482Z,3.60
2023-04-13T17:32:09.553Z,4.60
2023-04-13T17:34:29.637Z,4.47
2023-04-13T17:36:49.918Z,5.38
2023-04-13T17:39:10.016Z,3.85
2023-04-13T17:41:30.084Z,3.13
2023-04-13T17:43:50.105Z,3.35
2023-04-13T17:46:11.626Z,4.35
2023-04-13T17:48:31.589Z,5.75
2023-04-13T17:50:51.823Z,4.78
2023-04-13T17:53:12.040Z,5.28
2023-04-13T17:55:32.769Z,3.22
2023-04-13T17:57:53.258Z,3.63
2023-04-13T18:00:14.597Z,3.97
2023-04-13T18:02:35.432Z,3.65
2023-04-13T18:04:55.482Z,4.85
2023-04-13T18:07:15.810Z,6.38
2023-04-13T18:09:35.850Z,5.68
2023-04-13T18:11:56.114Z,5.72
2023-04-13T18:14:16.038Z,5.28
2023-04-13T18:16:36.360Z,4.05
2023-04-13T18:18:57.021Z,4.55
2023-04-13T18:21:19.022Z,3.90
2023-04-13T18:23:39.372Z,6.03
2023-04-13T18:26:01.822Z,3.78
2023-04-13T18:28:22.335Z,2.80
2023-04-13T18:30:42.315Z,3.22
2023-04-13T18:33:02.802Z,3.65
2023-04-13T18:35:23.005Z,6.15
2023-04-13T18:37:43.047Z,3.35
2023-04-13T18:40:04.606Z,3.95
2023-04-13T18:42:25.063Z,2.83
2023-04-13T18:44:44.972Z,3.53
2023-04-13T18:47:05.724Z,3.80
2023-04-13T18:49:26.414Z,4.35
2023-04-13T18:51:46.831Z,4.32
2023-04-13T18:54:07.204Z,5.07
2023-04-13T18:56:27.435Z,4.43
2023-04-13T18:58:47.567Z,4.75
2023-04-13T19:01:15.290Z,6.65
2023-04-13T19:03:35.840Z,11.30
2023-04-13T19:05:56.366Z,14.68
2023-04-13T19:08:16.738Z,9.07
2023-04-13T19:10:37.075Z,7.88
2023-04-13T19:12:57.369Z,7.10
2023-04-13T19:15:17.778Z,6.95
2023-04-13T19:17:37.816Z,6.43
2023-04-13T19:19:57.998Z,4.32
2023-04-13T19:22:21.093Z,4.68
2023-04-13T19:24:41.422Z,5.43
2023-04-13T19:27:01.686Z,5.45
2023-04-13T19:29:22.120Z,9.05
2023-04-13T19:31:43.948Z,9.48
2023-04-13T19:34:04.958Z,6.10
2023-04-13T19:36:25.982Z,7.55
2023-04-13T19:38:46.459Z,5.78
2023-04-13T19:41:06.602Z,7.80
2023-04-13T19:43:27.452Z,13.40
2023-04-13T19:45:47.465Z,14.70
2023-04-13T19:48:07.741Z,15.13
2023-04-13T19:50:28.012Z,9.00
2023-04-13T19:52:49.582Z,7.25
2023-04-13T19:55:10.033Z,11.02
2023-04-13T19:57:30.467Z,5.07
2023-04-13T19:59:51.064Z,5.40
2023-04-13T20:02:11.270Z,5.03
2023-04-13T20:04:32.510Z,6.30
2023-04-13T20:06:54.543Z,7.95
2023-04-13T20:09:15.278Z,8.40
2023-04-13T20:11:35.570Z,9.18
2023-04-13T20:13:56.563Z,7.35
2023-04-13T20:16:17.767Z,5.93
2023-04-13T20:18:37.987Z,6.00
2023-04-13T20:21:01.152Z,6.72
2023-04-13T20:23:21.676Z,5.28
2023-04-13T20:25:42.022Z,6.13
2023-04-13T20:28:02.445Z,6.75
2023-04-13T20:30:23.367Z,4.75
2023-04-13T20:32:43.720Z,4.25
2023-04-13T20:35:05.456Z,4.78
2023-04-13T20:37:25.741Z,5.65
2023-04-13T20:39:51.908Z,5.57
2023-04-13T20:42:12.140Z,5.78
2023-04-13T20:44:37.117Z,6.43
2023-04-13T20:46:57.412Z,6.15
2023-04-13T20:49:17.556Z,5.10
2023-04-13T20:51:39.057Z,6.28
2023-04-13T20:54:01.022Z,7.22
2023-04-13T20:56:23.812Z,6.97
2023-04-13T20:58:45.899Z,5.80
2023-04-13T21:01:06.204Z,7.60
2023-04-13T21:03:29.776Z,8.90
2023-04-13T21:05:50.351Z,7.63
2023-04-13T21:08:10.981Z,6.93
2023-04-13T21:10:30.983Z,6.57
2023-04-13T21:12:51.216Z,7.30
2023-04-13T21:15:11.546Z,6.53
2023-04-13T21:17:32.028Z,6.00
2023-04-13T21:19:52.335Z,5.80
2023-04-13T21:22:12.460Z,5.90
2023-04-13T21:24:32.658Z,5.22
2023-04-13T21:26:52.942Z,6.38
2023-04-13T21:29:15.626Z,7.13
2023-04-13T21:31:36.124Z,5.68
2023-04-13T21:33:58.304Z,5.68
2023-04-13T21:41:01.992Z,6.05
2023-04-13T21:43:22.152Z,7.32
2023-04-13T21:45:42.428Z,5.57
2023-04-13T21:48:02.687Z,6.53
2023-04-13T21:50:22.824Z,6.32
2023-04-13T21:52:43.203Z,7.68
2023-04-13T21:55:03.473Z,7.53
2023-04-13T21:57:23.670Z,6.50
2023-04-13T21:59:43.868Z,7.85
2023-04-13T22:02:04.279Z,6.20
2023-04-13T22:04:24.494Z,5.78
2023-04-13T22:06:45.061Z,5.07
2023-04-13T22:09:05.439Z,6.35
2023-04-13T22:11:25.819Z,6.43
2023-04-13T22:13:46.089Z,7.78
2023-04-13T22:16:06.706Z,5.60
2023-04-13T22:18:27.278Z,5.55
2023-04-13T22:20:47.418Z,5.65
2023-04-13T22:23:07.863Z,5.43
2023-04-13T22:25:28.082Z,8.55
2023-04-13T22:27:48.393Z,5.90
2023-04-13T22:30:08.936Z,5.18
2023-04-13T22:32:29.631Z,5.57
2023-04-13T22:34:50.034Z,4.68
2023-04-13T22:37:12.280Z,5.13
2023-04-13T22:39:32.707Z,4.85
2023-04-13T22:41:53.174Z,3.95
2023-04-13T22:44:13.274Z,5.75
2023-04-13T22:46:33.578Z,4.68
2023-04-13T22:48:53.983Z,4.63
2023-04-13T22:51:14.229Z,6.07
2023-04-13T22:53:34.442Z,6.32
2023-04-13T22:55:54.848Z,6.90
2023-04-13T22:58:14.938Z,5.75
2023-04-13T23:00:35.306Z,4.03
2023-04-13T23:02:56.180Z,6.30
2023-04-13T23:05:16.879Z,6.63
2023-04-13T23:07:37.434Z,6.47
2023-04-13T23:09:57.712Z,5.65
2023-04-13T23:12:17.863Z,6.15
2023-04-13T23:14:38.017Z,5.78
2023-04-13T23:16:58.420Z,6.85
2023-04-13T23:19:18.451Z,6.30
2023-04-13T23:21:38.539Z,6.85
2023-04-13T23:23:58.590Z,5.80
2023-04-13T23:26:18.630Z,6.60
2023-04-13T23:28:38.729Z,7.10
2023-04-13T23:31:05.494Z,7.13
2023-04-13T23:33:26.005Z,6.90
2023-04-13T23:35:51.586Z,6.88
2023-04-13T23:38:12.011Z,5.35
2023-04-13T23:40:32.164Z,5.63
2023-04-13T23:42:52.488Z,6.43
2023-04-13T23:45:12.972Z,6.28
2023-04-13T23:47:33.496Z,6.05
2023-04-13T23:49:55.117Z,6.00
2023-04-13T23:52:15.693Z,6.88
2023-04-13T23:54:36.068Z,6.85
2023-04-13T23:56:56.886Z,5.68
2023-04-13T23:59:18.062Z,7.47
